createdAt,value
2022-08-10T00:03:04.953Z,1.9
2022-08-10T00:08:07.965Z,1.9
2022-08-10T00:13:05.000Z,1.9
2022-08-10T00:23:08.266Z,1.9
2022-08-10T00:28:09.041Z,1.9
2022-08-10T00:43:05.227Z,2
2022-08-10T00:53:05.047Z,2
2022-08-10T00:58:05.041Z,2
2022-08-10T01:03:05.063Z,2
2022-08-10T01:08:04.991Z,2.1
2022-08-10T01:13:05.010Z,2
2022-08-10T01:18:05.966Z,2.1
2022-08-10T01:23:04.994Z,2.2
2022-08-10T01:28:05.008Z,2.2
2022-08-10T01:33:09.021Z,2.3
2022-08-10T01:38:04.987Z,2.2
2022-08-10T01:48:05.016Z,2.3
2022-08-10T01:53:05.009Z,2.4
2022-08-10T01:58:05.006Z,2.6
2022-08-10T02:03:08.002Z,2.6
2022-08-10T02:08:05.028Z,2.5
2022-08-10T02:13:04.979Z,2.5
2022-08-10T02:18:04.956Z,2.4
2022-08-10T02:28:05.013Z,2.3
2022-08-10T02:33:06.041Z,2.3
2022-08-10T02:38:05.006Z,2.3
2022-08-10T02:45:16.443Z,2.4
2022-08-10T02:48:05.009Z,2.8
2022-08-10T02:53:04.987Z,2.8
2022-08-10T02:58:12.811Z,2.8
2022-08-10T03:03:05.002Z,2.9
2022-08-10T03:08:05.067Z,2.9
2022-08-10T03:13:13.722Z,2.9
2022-08-10T03:18:05.021Z,2.9
2022-08-10T03:23:06.474Z,3.1
2022-08-10T03:28:05.003Z,3.2
2022-08-10T03:33:13.734Z,3.2
2022-08-10T03:38:05.018Z,3.3
2022-08-10T03:43:09.143Z,3.3
2022-08-10T03:48:05.069Z,3.3
2022-08-10T03:53:05.032Z,3.4
2022-08-10T03:58:05.092Z,3.6
2022-08-10T04:03:05.031Z,3.6
2022-08-10T04:08:08.120Z,3.6
2022-08-10T04:13:05.012Z,3.7
2022-08-10T04:18:08.104Z,3.7
2022-08-10T04:23:05.050Z,3.7
2022-08-10T04:28:05.083Z,4
2022-08-10T04:33:05.001Z,4.3
2022-08-10T04:38:05.153Z,4.3
2022-08-10T04:48:05.053Z,4.9
2022-08-10T04:53:05.122Z,5.1
2022-08-10T04:58:05.042Z,5.1
2022-08-10T05:03:08.058Z,5.1
2022-08-10T05:08:05.106Z,5.1
2022-08-10T05:13:05.084Z,5.3
2022-08-10T05:18:11.350Z,5.2
2022-08-10T05:23:05.038Z,4.9
2022-08-10T05:28:08.083Z,4.9
2022-08-10T05:33:11.167Z,4.9
2022-08-10T05:43:05.048Z,5.2
2022-08-10T05:54:00.361Z,5.2
2022-08-10T05:58:08.036Z,5.8
2022-08-10T06:03:05.062Z,5.8
2022-08-10T06:08:05.085Z,5.8
2022-08-10T06:13:05.075Z,5.8
2022-08-10T06:18:05.084Z,5.2
2022-08-10T06:23:05.131Z,4.8
2022-08-10T06:28:05.065Z,4.5
2022-08-10T06:33:05.172Z,4.4
2022-08-10T06:38:05.078Z,4.3
2022-08-10T06:43:05.038Z,4.2
2022-08-10T06:48:05.076Z,4.2
2022-08-10T06:53:05.101Z,4.2
2022-08-10T06:58:11.802Z,4.1
2022-08-10T07:03:09.079Z,3.9
2022-08-10T07:08:05.074Z,3.9
2022-08-10T07:13:05.084Z,3.5
2022-08-10T07:18:05.136Z,2.9
2022-08-10T07:23:56.301Z,2.6
2022-08-10T07:28:05.053Z,2.3
2022-08-10T07:33:05.093Z,1.8
2022-08-10T07:38:08.105Z,1.8
2022-08-10T07:43:05.151Z,1.8
2022-08-10T07:48:09.155Z,1.8
2022-08-10T07:53:06.108Z,1.8
2022-08-10T07:58:05.110Z,1.7
2022-08-10T08:03:05.126Z,1.8
2022-08-10T08:08:05.143Z,1.8
2022-08-10T08:13:06.191Z,1.7
2022-08-10T08:18:06.078Z,1.7
2022-08-10T08:24:03.988Z,1.6
2022-08-10T08:28:05.135Z,1.5
2022-08-10T08:33:05.179Z,1.5
2022-08-10T08:38:27.411Z,1.5
2022-08-10T08:43:05.132Z,1.5
2022-08-10T08:48:08.184Z,1.5
2022-08-10T08:53:21.105Z,1.5
2022-08-10T08:58:05.134Z,1.5
2022-08-10T09:03:05.129Z,1.5
2022-08-10T09:08:05.126Z,1.5
2022-08-10T09:13:05.169Z,1.5
2022-08-10T09:18:05.102Z,1.5
2022-08-10T09:23:08.124Z,1.5
2022-08-10T09:28:05.117Z,1.5
2022-08-10T09:36:18.820Z,1.5
2022-08-10T09:38:05.146Z,1.5
2022-08-10T09:43:25.113Z,1.5
2022-08-10T09:48:05.160Z,1.5
2022-08-10T09:53:05.158Z,1.5
2022-08-10T09:58:05.131Z,1.5
2022-08-10T10:03:05.154Z,1.3
2022-08-10T10:08:05.172Z,1.3
2022-08-10T10:13:05.148Z,1.3
2022-08-10T10:18:05.154Z,1.3
2022-08-10T10:28:05.186Z,1.3
2022-08-10T10:33:06.166Z,1.3
2022-08-10T10:38:05.188Z,1.3
2022-08-10T10:43:05.189Z,1.3
2022-08-10T10:48:05.209Z,1.3
2022-08-10T10:53:05.180Z,1.3
2022-08-10T10:58:05.380Z,1.3
2022-08-10T11:03:05.195Z,1.3
2022-08-10T11:08:08.227Z,1.3
2022-08-10T11:14:24.147Z,1.3
2022-08-10T11:18:05.175Z,1.3
2022-08-10T11:23:05.175Z,1.3
2022-08-10T11:28:05.185Z,1.3
2022-08-10T11:33:05.184Z,1.2
2022-08-10T11:38:28.332Z,1.1
2022-08-10T11:43:05.154Z,1.1
2022-08-10T11:48:05.206Z,1.1
2022-08-10T11:53:05.211Z,1.1
2022-08-10T11:58:06.232Z,1.1
2022-08-10T12:03:05.238Z,1.1
2022-08-10T12:10:08.307Z,1.1
2022-08-10T12:13:08.794Z,1
2022-08-10T12:18:05.196Z,0.9
2022-08-10T12:23:05.178Z,0.8
2022-08-10T12:28:05.194Z,0.8
2022-08-10T12:33:05.527Z,0.8
2022-08-10T12:38:05.176Z,0.8
2022-08-10T12:43:13.463Z,0.8
2022-08-10T12:48:07.232Z,0.8
2022-08-10T12:53:08.233Z,0.8
2022-08-10T12:58:57.002Z,0.9
2022-08-10T13:03:05.325Z,0.8
2022-08-10T13:13:05.229Z,0.8
2022-08-10T13:18:05.338Z,0.9
2022-08-10T13:23:05.261Z,0.9
2022-08-10T13:28:35.091Z,0.9
2022-08-10T13:33:05.350Z,0.9
2022-08-10T13:38:05.252Z,0.9
2022-08-10T13:43:05.228Z,0.9
2022-08-10T13:48:05.280Z,0.9
2022-08-10T13:53:13.818Z,0.9
2022-08-10T13:58:05.307Z,0.9
2022-08-10T14:03:05.248Z,0.9
2022-08-10T14:08:05.237Z,1
2022-08-10T14:13:08.277Z,1
2022-08-10T14:18:05.302Z,1
2022-08-10T14:23:12.395Z,1
2022-08-10T14:28:11.306Z,1
2022-08-10T14:33:05.494Z,1
2022-08-10T14:38:07.374Z,1
2022-08-10T14:43:05.315Z,1
2022-08-10T14:48:09.316Z,1
2022-08-10T15:43:20.059Z,1.5
2022-08-10T15:48:05.273Z,1.4
2022-08-10T15:53:05.304Z,1.5
2022-08-10T15:58:05.320Z,1.4
2022-08-10T16:03:05.286Z,1.3
2022-08-10T16:08:12.314Z,1.3
2022-08-10T16:13:51.266Z,1.3
2022-08-10T16:18:08.349Z,1.3
2022-08-10T16:23:05.269Z,1.3
2022-08-10T16:28:05.293Z,1.3
2022-08-10T16:33:09.348Z,1.3
2022-08-10T16:38:05.438Z,1.3
2022-08-10T16:43:05.361Z,1.3
2022-08-10T16:48:05.357Z,1.2
2022-08-10T16:53:10.043Z,1.2
2022-08-10T16:58:05.313Z,1.2
2022-08-10T17:03:22.967Z,1.2
2022-08-10T17:08:09.823Z,1.2
2022-08-10T17:13:05.346Z,1.2
2022-08-10T17:18:05.340Z,1.3
2022-08-10T17:23:05.321Z,1.4
2022-08-10T17:28:11.371Z,1.4
2022-08-10T17:33:05.320Z,1.4
2022-08-10T17:38:05.279Z,1.4
2022-08-10T17:43:05.359Z,1.5
2022-08-10T17:48:05.334Z,1.6
2022-08-10T17:53:05.397Z,1.6
2022-08-10T17:58:05.340Z,1.6
2022-08-10T18:03:05.385Z,1.6
2022-08-10T18:08:06.423Z,1.6
2022-08-10T18:13:05.343Z,1.6
2022-08-10T18:18:05.358Z,1.6
2022-08-10T18:23:05.338Z,1.6
2022-08-10T18:28:08.606Z,1.6
2022-08-10T18:33:05.371Z,1.6
2022-08-10T18:38:05.458Z,1.8
2022-08-10T18:44:06.669Z,1.8
2022-08-10T18:48:05.367Z,1.8
2022-08-10T18:53:05.373Z,1.8
2022-08-10T18:58:05.361Z,1.9
2022-08-10T19:03:09.376Z,2.1
2022-08-10T19:08:08.385Z,3.3
2022-08-10T19:13:05.353Z,3.3
2022-08-10T19:18:08.590Z,3.3
2022-08-10T19:23:08.443Z,3.3
2022-08-10T19:28:05.440Z,3
2022-08-10T19:33:05.408Z,2.9
2022-08-10T19:38:14.740Z,2.9
2022-08-10T19:43:11.438Z,2.9
2022-08-10T19:48:05.356Z,2.9
2022-08-10T19:53:05.343Z,2.5
2022-08-10T19:58:05.381Z,2.4
2022-08-10T20:03:10.861Z,2.4
2022-08-10T20:08:05.431Z,2.4
2022-08-10T20:13:05.459Z,2.4
2022-08-10T20:18:05.370Z,2.4
2022-08-10T20:23:05.385Z,2.5
2022-08-10T20:28:05.389Z,2.5
2022-08-10T20:33:05.389Z,2.5
2022-08-10T20:43:05.447Z,2.4
2022-08-10T20:48:05.406Z,2.4
2022-08-10T20:53:05.371Z,2.4
2022-08-10T20:58:05.411Z,2.4
2022-08-10T21:03:16.027Z,2.4
2022-08-10T21:08:05.625Z,2.4
2022-08-10T21:13:05.419Z,2.4
2022-08-10T21:18:05.445Z,2.4
2022-08-10T21:23:09.393Z,2.4
2022-08-10T21:28:05.379Z,2.4
2022-08-10T21:33:05.430Z,2.4
2022-08-10T21:38:05.436Z,2.4
2022-08-10T21:43:05.489Z,2.4
2022-08-10T21:48:16.470Z,2.4
2022-08-10T21:53:06.461Z,2.4
2022-08-10T22:08:05.446Z,2.4
2022-08-10T22:13:11.143Z,2.4
2022-08-10T22:18:07.567Z,2.4
2022-08-10T22:23:18.935Z,2.5
2022-08-10T22:28:12.445Z,2.5
2022-08-10T22:33:05.422Z,2.5
2022-08-10T22:38:09.468Z,2.5
2022-08-10T22:43:12.047Z,2.5
2022-08-10T22:48:05.479Z,2.5
2022-08-10T22:53:06.571Z,2.5
2022-08-10T22:58:05.470Z,2.6
2022-08-10T23:03:05.659Z,2.5
2022-08-10T23:08:05.462Z,2.5
2022-08-10T23:13:05.463Z,2.5
2022-08-10T23:18:05.703Z,2.5
2022-08-10T23:23:11.470Z,2.4
2022-08-10T23:28:12.436Z,2.3
2022-08-10T23:33:05.416Z,2.3
2022-08-10T23:38:05.463Z,2.5
2022-08-10T23:43:05.479Z,2.6
2022-08-10T23:48:05.516Z,2.6
2022-08-10T23:53:13.669Z,2.6
2022-08-10T23:58:05.467Z,2.6
